Time;durP1;ratioP1;P1;durP2;ratioP2;P2;SDS_P1;SDS_P2;PMS_P1;PMS_P2;Temp;Humidity;BMP_temperature;BMP_pressure;BME280_temperature;BME280_humidity;BME280_pressure;Samples;Min_cycle;Max_cycle;Signal;HPM_P1;HPM_P2
2024/02/22 00:02:56;;;;;;;;;;;;;;;;;;6316318;28;20280;-75
2024/02/22 00:05:56;;;;;;;;;;;;;;;;;;6305507;28;19939;-76
2024/02/22 00:08:56;;;;;;;;;;;;;;;;;;6309693;28;20007;-77
2024/02/22 00:11:56;;;;;;;;;;;;;;;;;;6312863;28;19915;-80
2024/02/22 00:14:56;;;;;;;;;;;;;;;;;;6313033;28;19955;-80
2024/02/22 00:17:56;;;;;;;;;;;;;;;;;;6311068;28;20085;-81
2024/02/22 00:20:56;;;;;;;;;;;;;;;;;;6312218;28;20023;-81
2024/02/22 00:23:57;;;;;;;;;;;;;;;;;;6313829;28;20356;-81
2024/02/22 00:26:57;;;;;;;;;;;;;;;;;;6309231;28;19920;-80
2024/02/22 00:29:57;;;;;;;;;;;;;;;;;;6301554;28;19908;-80
2024/02/22 00:32:57;;;;;;;;;;;;;;;;;;6308423;28;19911;-81
2024/02/22 00:35:57;;;;;;;;;;;;;;;;;;6307410;28;19942;-80
2024/02/22 00:38:57;;;;;;;;;;;;;;;;;;6305646;28;19922;-81
2024/02/22 00:41:58;;;;;;;;;;;;;;;;;;6299675;28;19908;-81
2024/02/22 00:44:58;;;;;;;;;;;;;;;;;;6307545;28;19908;-81
2024/02/22 00:47:58;;;;;;;;;;;;;;;;;;6306564;28;19920;-80
2024/02/22 00:50:58;;;;;;;;;;;;;;;;;;6306143;28;19963;-79
2024/02/22 00:53:59;;;;;;;;;;;;;;;;;;6310854;28;19916;-80
2024/02/22 00:56:59;;;;;;;;;;;;;;;;;;6306052;28;19907;-80
2024/02/22 00:59:59;;;;;;;;;;;;;;;;;;6307867;28;20333;-81
2024/02/22 01:02:59;;;;;;;;;;;;;;;;;;6304484;28;19943;-80
2024/02/22 01:05:59;;;;;;;;;;;;;;;;;;6305923;28;20433;-80
2024/02/22 01:09:00;;;;;;;;;;;;;;;;;;6310026;28;20272;-80
2024/02/22 01:12:00;;;;;;;;;;;;;;;;;;6307007;28;20436;-81
2024/02/22 01:15:00;;;;;;;;;;;;;;;;;;6301018;28;20010;-81
2024/02/22 01:18:01;;;;;;;;;;;;;;;;;;6306478;28;19920;-79
2024/02/22 01:21:02;;;;;;;;;;;;;;;;;;6307264;28;20280;-80
2024/02/22 01:24:02;;;;;;;;;;;;;;;;;;6308741;28;19961;-80
2024/02/22 01:27:02;;;;;;;;;;;;;;;;;;6305759;28;19919;-80
2024/02/22 01:30:03;;;;;;;;;;;;;;;;;;6306487;28;19922;-81
2024/02/22 01:33:03;;;;;;;;;;;;;;;;;;6308847;28;20292;-80
2024/02/22 01:36:03;;;;;;;;;;;;;;;;;;6306506;28;19911;-80
2024/02/22 01:39:05;;;;;;;;;;;;;;;;;;6315148;28;19912;-80
2024/02/22 01:42:05;;;;;;;;;;;;;;;;;;6307814;28;19954;-80
2024/02/22 01:45:05;;;;;;;;;;;;;;;;;;6306801;28;20049;-80
2024/02/22 01:48:05;;;;;;;;;;;;;;;;;;6307268;28;20387;-81
2024/02/22 01:51:06;;;;;;;;;;;;;;;;;;6305935;28;19915;-81
2024/02/22 01:54:06;;;;;;;;;;;;;;;;;;6309133;28;19938;-81
2024/02/22 01:57:06;;;;;;;;;;;;;;;;;;6309246;28;20374;-80
2024/02/22 02:00:15;;;;;;;;;;;;;;;;;;6304904;28;19908;-80
2024/02/22 02:03:15;;;;;;;;;;;;;;;;;;6304300;28;20332;-81
2024/02/22 02:06:15;;;;;;;;;;;;;;;;;;6306436;28;20418;-81
2024/02/22 02:09:16;;;;;;;;;;;;;;;;;;6310372;28;19919;-80
2024/02/22 02:12:16;;;;;;;;;;;;;;;;;;6308396;28;19912;-81
2024/02/22 02:15:16;;;;;;;;;;;;;;;;;;6301347;28;19908;-80
2024/02/22 02:18:16;;;;;;;;;;;;;;;;;;6306906;28;19917;-80
2024/02/22 02:21:16;;;;;;;;;;;;;;;;;;6303118;28;19912;-81
2024/02/22 02:24:17;;;;;;;;;;;;;;;;;;6305901;28;19914;-80
2024/02/22 02:27:17;;;;;;;;;;;;;;;;;;6305505;28;19912;-80
2024/02/22 02:30:17;;;;;;;;;;;;;;;;;;6306218;28;19955;-79
2024/02/22 02:33:17;;;;;;;;;;;;;;;;;;6307439;28;19908;-81
2024/02/22 02:36:17;;;;;;;;;;;;;;;;;;6307552;28;19938;-81
2024/02/22 02:39:17;;;;;;;;;;;;;;;;;;6312333;28;19926;-81
2024/02/22 02:42:17;;;;;;;;;;;;;;;;;;6305565;28;19915;-80
2024/02/22 02:45:17;;;;;;;;;;;;;;;;;;6306948;28;19916;-80
2024/02/22 02:48:19;;;;;;;;;;;;;;;;;;6311538;28;19916;-79
2024/02/22 02:51:19;;;;;;;;;;;;;;;;;;6310282;28;19912;-80
2024/02/22 02:54:19;;;;;;;;;;;;;;;;;;6311385;28;19915;-80
2024/02/22 02:57:21;;;;;;;;;;;;;;;;;;6309975;28;19915;-80
2024/02/22 03:00:21;;;;;;;;;;;;;;;;;;6312749;28;19958;-80
2024/02/22 03:03:22;;;;;;;;;;;;;;;;;;6315912;28;20285;-80
2024/02/22 03:06:22;;;;;;;;;;;;;;;;;;6308984;28;20034;-80
2024/02/22 03:09:22;;;;;;;;;;;;;;;;;;6310556;28;19931;-81
2024/02/22 03:12:22;;;;;;;;;;;;;;;;;;6309930;28;19931;-80
2024/02/22 03:15:22;;;;;;;;;;;;;;;;;;6308473;28;19915;-80
2024/02/22 03:18:22;;;;;;;;;;;;;;;;;;6311411;28;19916;-80
2024/02/22 03:21:22;;;;;;;;;;;;;;;;;;6310806;28;19938;-80
2024/02/22 03:24:22;;;;;;;;;;;;;;;;;;6307547;28;20050;-80
2024/02/22 03:27:23;;;;;;;;;;;;;;;;;;6307837;28;20001;-80
2024/02/22 03:30:23;;;;;;;;;;;;;;;;;;6308113;28;19916;-79
2024/02/22 03:33:26;;;;;;;;;;;;;;;;;;6305691;28;19912;-80
2024/02/22 03:36:27;;;;;;;;;;;;;;;;;;6306472;28;19908;-80
2024/02/22 03:39:27;;;;;;;;;;;;;;;;;;6311189;28;20310;-80
2024/02/22 03:42:28;;;;;;;;;;;;;;;;;;6306838;28;20430;-77
2024/02/22 03:45:29;;;;;;;;;;;;;;;;;;6308982;28;19923;-76
2024/02/22 03:48:29;;;;;;;;;;;;;;;;;;6308289;28;20417;-76
2024/02/22 03:51:29;;;;;;;;;;;;;;;;;;6306772;28;19920;-75
2024/02/22 03:54:31;;;;;;;;;;;;;;;;;;6312996;28;19908;-77
2024/02/22 03:57:31;;;;;;;;;;;;;;;;;;6309653;28;19915;-76
2024/02/22 04:00:32;;;;;;;;;;;;;;;;;;6309630;28;19950;-76
2024/02/22 04:03:34;;;;;;;;;;;;;;;;;;6311825;28;20247;-76
2024/02/22 04:06:34;;;;;;;;;;;;;;;;;;6305004;28;19984;-76
2024/02/22 04:09:34;;;;;;;;;;;;;;;;;;6308312;28;20368;-76
2024/02/22 04:12:35;;;;;;;;;;;;;;;;;;6309765;28;19916;-76
2024/02/22 04:15:36;;;;;;;;;;;;;;;;;;6309207;28;20437;-76
2024/02/22 04:18:36;;;;;;;;;;;;;;;;;;6308958;28;19923;-74
2024/02/22 04:21:36;;;;;;;;;;;;;;;;;;6311043;28;19908;-76
2024/02/22 04:24:37;;;;;;;;;;;;;;;;;;6314556;28;20353;-76
2024/02/22 04:27:37;;;;;;;;;;;;;;;;;;6311598;28;19915;-76
2024/02/22 04:30:38;;;;;;;;;;;;;;;;;;6310931;28;19919;-75
2024/02/22 04:33:38;;;;;;;;;;;;;;;;;;6306430;28;19908;-76
2024/02/22 04:36:41;;;;;;;;;;;;;;;;;;6307881;28;19912;-76
2024/02/22 04:39:41;;;;;;;;;;;;;;;;;;6310394;28;19943;-76
2024/02/22 04:42:41;;;;;;;;;;;;;;;;;;6304941;28;19912;-75
2024/02/22 04:45:41;;;;;;;;;;;;;;;;;;6309748;28;20887;-76
2024/02/22 04:48:42;;;;;;;;;;;;;;;;;;6309143;28;19916;-75
2024/02/22 04:51:42;;;;;;;;;;;;;;;;;;6306611;28;21411;-78
2024/02/22 04:54:43;;;;;;;;;;;;;;;;;;6305360;28;19986;-77
2024/02/22 04:57:43;;;;;;;;;;;;;;;;;;6308653;28;19947;-76
2024/02/22 05:00:44;;;;;;;;;;;;;;;;;;6309583;28;19979;-76
2024/02/22 05:03:46;;;;;;;;;;;;;;;;;;6310515;28;20388;-76
2024/02/22 05:06:46;;;;;;;;;;;;;;;;;;6309201;28;19911;-76
2024/02/22 05:09:47;;;;;;;;;;;;;;;;;;6312610;28;20044;-76
2024/02/22 05:12:47;;;;;;;;;;;;;;;;;;6304577;28;19916;-76
2024/02/22 05:15:48;;;;;;;;;;;;;;;;;;6305575;28;19920;-76
2024/02/22 05:18:48;;;;;;;;;;;;;;;;;;6303580;28;19957;-77
2024/02/22 05:21:51;;;;;;;;;;;;;;;;;;6303645;28;19915;-77
2024/02/22 05:24:51;;;;;;;;;;;;;;;;;;6306693;28;19908;-76
2024/02/22 05:27:51;;;;;;;;;;;;;;;;;;6307742;28;19911;-76
2024/02/22 05:30:52;;;;;;;;;;;;;;;;;;6301149;28;20029;-76
2024/02/22 05:33:52;;;;;;;;;;;;;;;;;;6307297;28;19938;-77
2024/02/22 05:36:52;;;;;;;;;;;;;;;;;;6304494;28;19974;-76
2024/02/22 05:39:52;;;;;;;;;;;;;;;;;;6304352;28;19912;-76
2024/02/22 05:42:53;;;;;;;;;;;;;;;;;;6308558;28;19915;-76
2024/02/22 05:45:53;;;;;;;;;;;;;;;;;;6306674;28;20007;-76
2024/02/22 05:48:53;;;;;;;;;;;;;;;;;;6307670;28;20265;-76
2024/02/22 05:51:53;;;;;;;;;;;;;;;;;;6303438;28;20030;-76
2024/02/22 05:54:54;;;;;;;;;;;;;;;;;;6304189;28;20019;-75
2024/02/22 05:57:54;;;;;;;;;;;;;;;;;;6300996;28;20220;-77
2024/02/22 06:00:54;;;;;;;;;;;;;;;;;;6305718;28;20380;-80
2024/02/22 06:03:54;;;;;;;;;;;;;;;;;;6308633;28;19908;-80
2024/02/22 06:06:55;;;;;;;;;;;;;;;;;;6307904;28;19916;-80
2024/02/22 06:09:55;;;;;;;;;;;;;;;;;;6299487;28;19920;-80
2024/02/22 06:12:55;;;;;;;;;;;;;;;;;;6305389;28;20014;-79
2024/02/22 06:15:55;;;;;;;;;;;;;;;;;;6303819;28;20414;-81
2024/02/22 06:18:55;;;;;;;;;;;;;;;;;;6303324;28;20024;-80
2024/02/22 06:21:56;;;;;;;;;;;;;;;;;;6307204;28;19912;-80
2024/02/22 06:24:56;;;;;;;;;;;;;;;;;;6313884;28;19916;-80
2024/02/22 06:27:56;;;;;;;;;;;;;;;;;;6309496;28;19916;-80
2024/02/22 06:30:56;;;;;;;;;;;;;;;;;;6310640;28;19945;-81
2024/02/22 06:33:56;;;;;;;;;;;;;;;;;;6309700;28;19908;-79
2024/02/22 06:36:56;;;;;;;;;;;;;;;;;;6309722;28;19908;-81
2024/02/22 06:39:56;;;;;;;;;;;;;;;;;;6310520;28;19916;-80
2024/02/22 06:42:57;;;;;;;;;;;;;;;;;;6310462;28;19919;-80
2024/02/22 06:45:57;;;;;;;;;;;;;;;;;;6310726;28;19943;-80
2024/02/22 06:48:57;;;;;;;;;;;;;;;;;;6309127;28;19916;-80
2024/02/22 06:51:58;;;;;;;;;;;;;;;;;;6312578;28;19912;-76
2024/02/22 06:54:58;;;;;;;;;;;;;;;;;;6303299;28;19917;-76
2024/02/22 06:57:58;;;;;;;;;;;;;;;;;;6311628;28;19912;-80
2024/02/22 07:00:58;;;;;;;;;;;;;;;;;;6309817;28;19912;-80
2024/02/22 07:03:59;;;;;;;;;;;;;;;;;;6304755;28;19908;-80
2024/02/22 07:06:59;;;;;;;;;;;;;;;;;;6309851;28;19919;-79
2024/02/22 07:09:59;;;;;;;;;;;;;;;;;;6307988;28;20645;-80
2024/02/22 07:12:59;;;;;;;;;;;;;;;;;;6303145;28;19928;-79
2024/02/22 07:15:59;;;;;;;;;;;;;;;;;;6303164;28;19938;-77
2024/02/22 07:18:59;;;;;;;;;;;;;;;;;;6306506;28;19964;-77
2024/02/22 07:21:59;;;;;;;;;;;;;;;;;;6305663;28;19961;-77
2024/02/22 07:25:00;;;;;;;;;;;;;;;;;;6322115;28;19908;-77
2024/02/22 07:28:00;;;;;;;;;;;;;;;;;;6308455;28;20367;-77
2024/02/22 07:31:00;;;;;;;;;;;;;;;;;;6304729;28;19911;-77
2024/02/22 07:34:00;;;;;;;;;;;;;;;;;;6311432;28;20389;-77
2024/02/22 07:37:00;;;;;;;;;;;;;;;;;;6322303;28;19915;-76
2024/02/22 07:40:00;;;;;;;;;;;;;;;;;;6310952;28;19911;-76
2024/02/22 07:43:00;;;;;;;;;;;;;;;;;;6323287;28;19907;-76
2024/02/22 07:46:03;;;;;;;;;;;;;;;;;;6311049;28;20410;-77
2024/02/22 07:49:03;;;;;;;;;;;;;;;;;;6324768;28;20322;-77
2024/02/22 07:52:06;;;;;;;;;;;;;;;;;;6314681;28;20376;-77
2024/02/22 07:55:06;;;;;;;;;;;;;;;;;;6323050;28;20012;-77
2024/02/22 07:58:06;;;;;;;;;;;;;;;;;;6317721;28;19912;-77
2024/02/22 08:01:06;;;;;;;;;;;;;;;;;;6315312;28;19912;-77
2024/02/22 08:04:07;;;;;;;;;;;;;;;;;;6311372;28;20344;-77
2024/02/22 08:07:07;;;;;;;;;;;;;;;;;;6312900;28;20018;-77
2024/02/22 08:10:07;;;;;;;;;;;;;;;;;;6309362;28;19915;-77
2024/02/22 08:13:07;;;;;;;;;;;;;;;;;;6308793;28;19916;-77
2024/02/22 08:16:07;;;;;;;;;;;;;;;;;;6318167;28;20304;-77
2024/02/22 08:19:07;;;;;;;;;;;;;;;;;;6306311;28;19908;-77
2024/02/22 08:22:09;;;;;;;;;;;;;;;;;;6309079;28;19903;-81
2024/02/22 08:25:09;;;;;;;;;;;;;;;;;;6326936;28;19926;-81
2024/02/22 08:28:12;;;;;;;;;;;;;;;;;;6075735;28;10000674;-81
2024/02/22 08:31:12;;;;;;;;;;;;;;;;;;6311436;28;20285;-81
2024/02/22 08:34:12;;;;;;;;;;;;;;;;;;6322777;28;20277;-81
2024/02/22 08:37:13;;;;;;;;;;;;;;;;;;6312696;28;19977;-81
2024/02/22 08:40:13;;;;;;;;;;;;;;;;;;6306069;28;20316;-81
2024/02/22 08:43:14;;;;;;;;;;;;;;;;;;6315965;28;19904;-81
2024/02/22 08:46:14;;;;;;;;;;;;;;;;;;6311690;28;20011;-80
2024/02/22 08:49:15;;;;;;;;;;;;;;;;;;6316412;28;19915;-80
2024/02/22 08:52:15;;;;;;;;;;;;;;;;;;6322875;28;19908;-80
2024/02/22 08:55:15;;;;;;;;;;;;;;;;;;6319240;28;20371;-78
2024/02/22 08:58:15;;;;;;;;;;;;;;;;;;6308866;28;20317;-78
2024/02/22 09:01:15;;;;;;;;;;;;;;;;;;6301864;28;20333;-78
2024/02/22 09:04:15;;;;;;;;;;;;;;;;;;6319998;28;20389;-77
2024/02/22 09:07:15;;;;;;;;;;;;;;;;;;6318960;28;20404;-77
2024/02/22 09:10:15;;;;;;;;;;;;;;;;;;6307025;28;19971;-76
2024/02/22 09:13:16;;;;;;;;;;;;;;;;;;6321283;28;19996;-76
2024/02/22 09:16:16;;;;;;;;;;;;;;;;;;6310807;28;19912;-78
2024/02/22 09:19:16;;;;;;;;;;;;;;;;;;6317497;28;19912;-78
2024/02/22 09:22:16;;;;;;;;;;;;;;;;;;6316590;28;19934;-77
2024/02/22 09:25:16;;;;;;;;;;;;;;;;;;6325410;28;20290;-78
2024/02/22 09:28:17;;;;;;;;;;;;;;;;;;6323746;28;19951;-77
2024/02/22 09:31:17;;;;;;;;;;;;;;;;;;6323607;28;19935;-78
2024/02/22 09:34:17;;;;;;;;;;;;;;;;;;6323518;28;19962;-80
2024/02/22 09:37:17;;;;;;;;;;;;;;;;;;6321697;28;19904;-79
2024/02/22 09:40:18;;;;;;;;;;;;;;;;;;6320637;28;20395;-80
2024/02/22 09:43:18;;;;;;;;;;;;;;;;;;6321539;28;19912;-80
2024/02/22 09:46:21;;;;;;;;;;;;;;;;;;6322028;28;20349;-80
2024/02/22 09:49:21;;;;;;;;;;;;;;;;;;6324369;28;19912;-80
2024/02/22 09:52:21;;;;;;;;;;;;;;;;;;6320391;28;19908;-77
2024/02/22 09:55:21;;;;;;;;;;;;;;;;;;6320653;28;19908;-77
2024/02/22 09:58:22;;;;;;;;;;;;;;;;;;6327499;28;19911;-77
2024/02/22 10:01:22;;;;;;;;;;;;;;;;;;6302631;28;19927;-76
2024/02/22 10:04:23;;;;;;;;;;;;;;;;;;6313139;28;20049;-77
2024/02/22 10:07:23;;;;;;;;;;;;;;;;;;6318256;28;19920;-77
2024/02/22 10:10:24;;;;;;;;;;;;;;;;;;6327610;28;20288;-77
2024/02/22 10:13:24;;;;;;;;;;;;;;;;;;6335841;28;19915;-77
2024/02/22 10:16:25;;;;;;;;;;;;;;;;;;6338398;28;20250;-77
2024/02/22 10:19:25;;;;;;;;;;;;;;;;;;6327210;28;19930;-77
2024/02/22 10:22:25;;;;;;;;;;;;;;;;;;6325897;28;19904;-77
2024/02/22 10:25:26;;;;;;;;;;;;;;;;;;6325788;28;20345;-77
2024/02/22 10:28:26;;;;;;;;;;;;;;;;;;6324064;28;19915;-77
2024/02/22 10:31:26;;;;;;;;;;;;;;;;;;6322650;28;19916;-77
2024/02/22 10:34:27;;;;;;;;;;;;;;;;;;6326618;28;20265;-77
2024/02/22 10:37:27;;;;;;;;;;;;;;;;;;6326016;28;20265;-77
2024/02/22 10:40:27;;;;;;;;;;;;;;;;;;6326347;28;19904;-74
2024/02/22 10:43:27;;;;;;;;;;;;;;;;;;6326401;28;19904;-74
2024/02/22 10:46:28;;;;;;;;;;;;;;;;;;6325209;28;19915;-73
2024/02/22 10:49:31;;;;;;;;;;;;;;;;;;6326871;28;19955;-73
2024/02/22 10:52:31;;;;;;;;;;;;;;;;;;6325163;28;20287;-74
2024/02/22 10:55:32;;;;;;;;;;;;;;;;;;6325217;28;19908;-74
2024/02/22 10:58:33;;;;;;;;;;;;;;;;;;6326120;28;19908;-73
2024/02/22 11:01:33;;;;;;;;;;;;;;;;;;6324164;28;19943;-74
2024/02/22 11:04:34;;;;;;;;;;;;;;;;;;6310645;28;19913;-74
2024/02/22 11:07:34;;;;;;;;;;;;;;;;;;6315307;28;20318;-74
2024/02/22 11:10:35;;;;;;;;;;;;;;;;;;6324951;28;19912;-74
2024/02/22 11:13:36;;;;;;;;;;;;;;;;;;6317278;28;19916;-74
2024/02/22 11:16:37;;;;;;;;;;;;;;;;;;6313691;28;19908;-73
2024/02/22 11:19:38;;;;;;;;;;;;;;;;;;6310318;28;19908;-73
2024/02/22 11:22:38;;;;;;;;;;;;;;;;;;6326032;28;19923;-74
2024/02/22 11:25:38;;;;;;;;;;;;;;;;;;6326191;28;19944;-73
2024/02/22 11:28:38;;;;;;;;;;;;;;;;;;6323099;28;19970;-73
2024/02/22 11:31:38;;;;;;;;;;;;;;;;;;6325433;28;19954;-73
2024/02/22 11:34:39;;;;;;;;;;;;;;;;;;6326324;28;19904;-74
2024/02/22 11:37:39;;;;;;;;;;;;;;;;;;6326251;28;19904;-74
2024/02/22 11:40:41;;;;;;;;;;;;;;;;;;6325944;28;19998;-73
2024/02/22 11:43:43;;;;;;;;;;;;;;;;;;6323529;28;20368;-73
2024/02/22 11:46:43;;;;;;;;;;;;;;;;;;6312228;28;20321;-76
2024/02/22 11:49:43;;;;;;;;;;;;;;;;;;6300447;28;19904;-76
2024/02/22 11:52:43;;;;;;;;;;;;;;;;;;6315295;28;19911;-73
2024/02/22 11:55:43;;;;;;;;;;;;;;;;;;6320434;28;19961;-74
2024/02/22 11:58:44;;;;;;;;;;;;;;;;;;6321542;28;19915;-73
2024/02/22 12:01:44;;;;;;;;;;;;;;;;;;6324173;28;20253;-74
2024/02/22 12:04:44;;;;;;;;;;;;;;;;;;6332828;28;20284;-74
2024/02/22 12:07:44;;;;;;;;;;;;;;;;;;6312588;28;19961;-74
2024/02/22 12:10:44;;;;;;;;;;;;;;;;;;6310704;28;19908;-73
2024/02/22 12:13:44;;;;;;;;;;;;;;;;;;6326896;28;20259;-74
2024/02/22 12:16:44;;;;;;;;;;;;;;;;;;6303461;28;19926;-73
2024/02/22 12:19:45;;;;;;;;;;;;;;;;;;6298912;28;19999;-74
2024/02/22 12:22:45;;;;;;;;;;;;;;;;;;6300545;28;19905;-73
2024/02/22 12:25:45;;;;;;;;;;;;;;;;;;6313764;28;19908;-73
2024/02/22 12:28:45;;;;;;;;;;;;;;;;;;6323979;28;19927;-73
2024/02/22 12:31:45;;;;;;;;;;;;;;;;;;6321753;28;19908;-74
2024/02/22 12:34:46;;;;;;;;;;;;;;;;;;6318866;28;19954;-76
2024/02/22 12:37:46;;;;;;;;;;;;;;;;;;6335146;28;19915;-76
2024/02/22 12:40:46;;;;;;;;;;;;;;;;;;6323172;28;20325;-73
2024/02/22 12:43:49;;;;;;;;;;;;;;;;;;6318931;28;19912;-74
2024/02/22 12:46:49;;;;;;;;;;;;;;;;;;6322383;28;19908;-73
2024/02/22 12:49:49;;;;;;;;;;;;;;;;;;6301743;28;19967;-73
2024/02/22 12:52:50;;;;;;;;;;;;;;;;;;6299970;28;19908;-72
2024/02/22 12:55:50;;;;;;;;;;;;;;;;;;6299954;28;19951;-74
2024/02/22 12:58:50;;;;;;;;;;;;;;;;;;6303701;28;19999;-74
2024/02/22 13:01:50;;;;;;;;;;;;;;;;;;6308714;28;20007;-77
2024/02/22 13:04:50;;;;;;;;;;;;;;;;;;6316635;28;19908;-77
2024/02/22 13:07:50;;;;;;;;;;;;;;;;;;6302920;28;19916;-77
2024/02/22 13:10:51;;;;;;;;;;;;;;;;;;6311095;28;20390;-77
2024/02/22 13:13:51;;;;;;;;;;;;;;;;;;6308110;28;19923;-77
2024/02/22 13:16:51;;;;;;;;;;;;;;;;;;6317816;28;19913;-77
2024/02/22 13:19:51;;;;;;;;;;;;;;;;;;6309576;28;19931;-78
2024/02/22 13:22:52;;;;;;;;;;;;;;;;;;6300385;28;19908;-78
2024/02/22 13:25:52;;;;;;;;;;;;;;;;;;6301230;28;19991;-78
2024/02/22 13:28:52;;;;;;;;;;;;;;;;;;6297394;28;19916;-77
2024/02/22 13:31:57;;;;;;;;;;;;;;;;;;6319134;28;19908;-80
2024/02/22 13:34:57;;;;;;;;;;;;;;;;;;6320705;28;20379;-77
2024/02/22 13:37:57;;;;;;;;;;;;;;;;;;6308707;28;19956;-78
2024/02/22 13:41:00;;;;;;;;;;;;;;;;;;6323108;28;19950;-77
2024/02/22 13:44:02;;;;;;;;;;;;;;;;;;6316242;28;19950;-80
2024/02/22 13:47:03;;;;;;;;;;;;;;;;;;6306731;28;19958;-80
2024/02/22 13:50:03;;;;;;;;;;;;;;;;;;6321781;28;19953;-77
2024/02/22 13:53:03;;;;;;;;;;;;;;;;;;6319077;28;19965;-77
2024/02/22 13:56:03;;;;;;;;;;;;;;;;;;6321378;28;19991;-77
2024/02/22 13:59:03;;;;;;;;;;;;;;;;;;6318667;28;20014;-77
2024/02/22 14:02:04;;;;;;;;;;;;;;;;;;6319882;28;20682;-77
2024/02/22 14:05:04;;;;;;;;;;;;;;;;;;6323251;28;20273;-77
2024/02/22 14:08:07;;;;;;;;;;;;;;;;;;6304957;28;19916;-79
2024/02/22 14:11:08;;;;;;;;;;;;;;;;;;6336985;28;19916;-78
2024/02/22 14:14:08;;;;;;;;;;;;;;;;;;6324737;28;19951;-78
2024/02/22 14:17:10;;;;;;;;;;;;;;;;;;6314029;28;19922;-77
2024/02/22 14:20:10;;;;;;;;;;;;;;;;;;6309683;28;19908;-76
2024/02/22 14:23:11;;;;;;;;;;;;;;;;;;6302143;28;20258;-77
2024/02/22 14:26:11;;;;;;;;;;;;;;;;;;6310284;28;19908;-76
2024/02/22 14:29:11;;;;;;;;;;;;;;;;;;6318303;28;19916;-77
2024/02/22 14:32:11;;;;;;;;;;;;;;;;;;6321243;28;19912;-75
2024/02/22 14:35:13;;;;;;;;;;;;;;;;;;6299185;28;19908;-77
2024/02/22 14:38:13;;;;;;;;;;;;;;;;;;6298273;28;19912;-79
2024/02/22 14:41:13;;;;;;;;;;;;;;;;;;6297481;28;20315;-77
2024/02/22 14:44:13;;;;;;;;;;;;;;;;;;6303796;28;19958;-77
2024/02/22 14:47:14;;;;;;;;;;;;;;;;;;6307741;28;19920;-77
2024/02/22 14:50:16;;;;;;;;;;;;;;;;;;6300767;28;19904;-77
2024/02/22 14:53:16;;;;;;;;;;;;;;;;;;6323996;28;19961;-77
2024/02/22 14:56:16;;;;;;;;;;;;;;;;;;6314428;28;19916;-77
2024/02/22 14:59:17;;;;;;;;;;;;;;;;;;6323837;28;19965;-77
2024/02/22 15:02:18;;;;;;;;;;;;;;;;;;6322349;28;19908;-77
2024/02/22 15:05:18;;;;;;;;;;;;;;;;;;6322035;28;19995;-77
2024/02/22 15:08:18;;;;;;;;;;;;;;;;;;6309147;28;19916;-77
2024/02/22 15:11:18;;;;;;;;;;;;;;;;;;6302625;28;19915;-77
2024/02/22 15:14:18;;;;;;;;;;;;;;;;;;6307365;28;20441;-77
2024/02/22 15:17:21;;;;;;;;;;;;;;;;;;6316902;28;19959;-77
2024/02/22 15:20:22;;;;;;;;;;;;;;;;;;6328065;28;19904;-77
2024/02/22 15:23:23;;;;;;;;;;;;;;;;;;6318442;28;19909;-77
2024/02/22 15:26:23;;;;;;;;;;;;;;;;;;6301424;28;19960;-77
2024/02/22 15:29:23;;;;;;;;;;;;;;;;;;6300947;28;19916;-77
2024/02/22 15:32:23;;;;;;;;;;;;;;;;;;6318020;28;19904;-74
2024/02/22 15:35:24;;;;;;;;;;;;;;;;;;6325757;28;19934;-74
2024/02/22 15:38:26;;;;;;;;;;;;;;;;;;6305576;28;19950;-75
2024/02/22 15:41:28;;;;;;;;;;;;;;;;;;6301375;28;20418;-75
2024/02/22 15:44:28;;;;;;;;;;;;;;;;;;6300882;28;19950;-74
2024/02/22 15:47:28;;;;;;;;;;;;;;;;;;6310160;28;20010;-74
2024/02/22 15:50:28;;;;;;;;;;;;;;;;;;6309878;28;20419;-74
2024/02/22 15:53:28;;;;;;;;;;;;;;;;;;6311224;28;19912;-74
2024/02/22 15:56:30;;;;;;;;;;;;;;;;;;6324799;28;19921;-74
2024/02/22 15:59:30;;;;;;;;;;;;;;;;;;6321266;28;20011;-74
2024/02/22 16:02:30;;;;;;;;;;;;;;;;;;6304124;28;19915;-75
2024/02/22 16:05:32;;;;;;;;;;;;;;;;;;6319962;28;19915;-74
2024/02/22 16:08:32;;;;;;;;;;;;;;;;;;6324744;28;19915;-74
2024/02/22 16:11:35;;;;;;;;;;;;;;;;;;6326197;28;19931;-74
2024/02/22 16:14:37;;;;;;;;;;;;;;;;;;6316206;28;20003;-74
2024/02/22 16:17:37;;;;;;;;;;;;;;;;;;6308452;28;20659;-74
2024/02/22 16:20:38;;;;;;;;;;;;;;;;;;6318389;28;20007;-75
2024/02/22 16:23:39;;;;;;;;;;;;;;;;;;6325919;28;20364;-74
2024/02/22 16:26:39;;;;;;;;;;;;;;;;;;6324775;28;19904;-74
2024/02/22 16:29:39;;;;;;;;;;;;;;;;;;6313451;28;20415;-75
2024/02/22 16:32:40;;;;;;;;;;;;;;;;;;6303249;28;19908;-75
2024/02/22 16:35:40;;;;;;;;;;;;;;;;;;6300674;28;19908;-75
2024/02/22 16:38:40;;;;;;;;;;;;;;;;;;6301074;28;19935;-75
2024/02/22 16:41:41;;;;;;;;;;;;;;;;;;6306233;28;20346;-77
2024/02/22 16:44:41;;;;;;;;;;;;;;;;;;6320581;28;20268;-77
2024/02/22 16:47:44;;;;;;;;;;;;;;;;;;6310681;28;20269;-74
2024/02/22 16:50:46;;;;;;;;;;;;;;;;;;6317507;28;19908;-75
2024/02/22 16:53:48;;;;;;;;;;;;;;;;;;6304041;28;19940;-76
2024/02/22 16:56:48;;;;;;;;;;;;;;;;;;6319318;28;19908;-75
2024/02/22 16:59:48;;;;;;;;;;;;;;;;;;6304206;28;19915;-75
2024/02/22 17:02:48;;;;;;;;;;;;;;;;;;6321339;28;19915;-74
2024/02/22 17:05:48;;;;;;;;;;;;;;;;;;6322821;28;19908;-75
2024/02/22 17:08:48;;;;;;;;;;;;;;;;;;6320956;28;19916;-75
2024/02/22 17:11:49;;;;;;;;;;;;;;;;;;6350459;28;19907;-75
2024/02/22 17:14:49;;;;;;;;;;;;;;;;;;6319488;28;19924;-75
2024/02/22 17:17:50;;;;;;;;;;;;;;;;;;6312798;28;19923;-75
2024/02/22 17:20:50;;;;;;;;;;;;;;;;;;6324110;28;19912;-78
2024/02/22 17:23:50;;;;;;;;;;;;;;;;;;6325048;28;20246;-75
2024/02/22 17:26:52;;;;;;;;;;;;;;;;;;6324554;28;20275;-77
2024/02/22 17:29:52;;;;;;;;;;;;;;;;;;6311376;28;19912;-77
2024/02/22 17:32:52;;;;;;;;;;;;;;;;;;6300196;28;20308;-78
2024/02/22 17:35:53;;;;;;;;;;;;;;;;;;6309327;28;20292;-75
2024/02/22 17:38:54;;;;;;;;;;;;;;;;;;6311992;28;20288;-74
2024/02/22 17:41:54;;;;;;;;;;;;;;;;;;6321497;28;19908;-75
2024/02/22 17:44:55;;;;;;;;;;;;;;;;;;6321542;28;20354;-75
2024/02/22 17:47:56;;;;;;;;;;;;;;;;;;6322442;28;20277;-75
2024/02/22 17:50:57;;;;;;;;;;;;;;;;;;6323343;28;19907;-75
2024/02/22 17:53:57;;;;;;;;;;;;;;;;;;6318538;28;20265;-75
2024/02/22 17:56:57;;;;;;;;;;;;;;;;;;6300188;28;19913;-76
2024/02/22 17:59:57;;;;;;;;;;;;;;;;;;6295495;28;20319;-75
2024/02/22 18:02:58;;;;;;;;;;;;;;;;;;6297404;28;20411;-74
2024/02/22 18:05:58;;;;;;;;;;;;;;;;;;6296402;28;19948;-74
2024/02/22 18:08:58;;;;;;;;;;;;;;;;;;6301233;28;20006;-75
2024/02/22 18:11:58;;;;;;;;;;;;;;;;;;6296955;28;19915;-75
2024/02/22 18:14:58;;;;;;;;;;;;;;;;;;6296818;28;19916;-75
2024/02/22 18:17:58;;;;;;;;;;;;;;;;;;6298352;28;19916;-75
2024/02/22 18:20:58;;;;;;;;;;;;;;;;;;6300036;28;20000;-75
2024/02/22 18:23:59;;;;;;;;;;;;;;;;;;6301712;28;19915;-75
2024/02/22 18:26:59;;;;;;;;;;;;;;;;;;6305650;28;19908;-76
2024/02/22 18:29:59;;;;;;;;;;;;;;;;;;6313150;28;19955;-75
2024/02/22 18:32:59;;;;;;;;;;;;;;;;;;6301951;28;19942;-77
2024/02/22 18:35:59;;;;;;;;;;;;;;;;;;6304800;28;19952;-75
2024/02/22 18:38:59;;;;;;;;;;;;;;;;;;6304150;28;19920;-77
2024/02/22 18:42:00;;;;;;;;;;;;;;;;;;6302851;28;19948;-75
2024/02/22 18:45:00;;;;;;;;;;;;;;;;;;6303338;28;19985;-74
2024/02/22 18:48:03;;;;;;;;;;;;;;;;;;6306195;28;19916;-74
2024/02/22 18:51:03;;;;;;;;;;;;;;;;;;6299737;28;19912;-74
2024/02/22 18:54:03;;;;;;;;;;;;;;;;;;6303588;28;19912;-74
2024/02/22 18:57:04;;;;;;;;;;;;;;;;;;6317574;28;19933;-74
2024/02/22 19:00:04;;;;;;;;;;;;;;;;;;6303439;28;19995;-73
2024/02/22 19:03:09;;;;;;;;;;;;;;;;;;6301875;28;20003;-78
2024/02/22 19:06:09;;;;;;;;;;;;;;;;;;6308395;28;20387;-78
2024/02/22 19:09:09;;;;;;;;;;;;;;;;;;6303762;28;19916;-78
2024/02/22 19:12:10;;;;;;;;;;;;;;;;;;6299520;28;19923;-78
2024/02/22 19:15:10;;;;;;;;;;;;;;;;;;6296666;28;19978;-78
2024/02/22 19:18:10;;;;;;;;;;;;;;;;;;6300314;28;20323;-78
2024/02/22 19:21:12;;;;;;;;;;;;;;;;;;6302059;28;20384;-78
2024/02/22 19:24:12;;;;;;;;;;;;;;;;;;6298008;28;19927;-78
2024/02/22 19:27:13;;;;;;;;;;;;;;;;;;6301475;28;19927;-78
2024/02/22 19:30:13;;;;;;;;;;;;;;;;;;6302266;28;19917;-78
2024/02/22 19:33:13;;;;;;;;;;;;;;;;;;6303955;28;19911;-78
2024/02/22 19:36:14;;;;;;;;;;;;;;;;;;6300121;28;19911;-78
2024/02/22 19:39:14;;;;;;;;;;;;;;;;;;6305623;28;19954;-78
2024/02/22 19:42:16;;;;;;;;;;;;;;;;;;6301867;28;20382;-78
2024/02/22 19:45:16;;;;;;;;;;;;;;;;;;6306194;28;19918;-81
2024/02/22 19:48:17;;;;;;;;;;;;;;;;;;6300520;28;19924;-78
2024/02/22 19:51:17;;;;;;;;;;;;;;;;;;6296272;28;19916;-77
2024/02/22 19:54:17;;;;;;;;;;;;;;;;;;6303558;28;19966;-78
2024/02/22 19:57:19;;;;;;;;;;;;;;;;;;6300929;28;20014;-78
2024/02/22 20:00:19;;;;;;;;;;;;;;;;;;6293783;28;19912;-78
2024/02/22 20:03:20;;;;;;;;;;;;;;;;;;6311933;28;20060;-78
2024/02/22 20:06:21;;;;;;;;;;;;;;;;;;6300223;28;19912;-78
2024/02/22 20:09:21;;;;;;;;;;;;;;;;;;6317578;28;19920;-79
2024/02/22 20:12:21;;;;;;;;;;;;;;;;;;6297599;28;19913;-75
2024/02/22 20:15:21;;;;;;;;;;;;;;;;;;6308492;28;19934;-76
2024/02/22 20:18:22;;;;;;;;;;;;;;;;;;6294248;28;19913;-75
2024/02/22 20:21:22;;;;;;;;;;;;;;;;;;6302076;28;19935;-75
2024/02/22 20:24:22;;;;;;;;;;;;;;;;;;6296663;28;20367;-75
2024/02/22 20:27:22;;;;;;;;;;;;;;;;;;6315754;28;19931;-75
2024/02/22 20:30:23;;;;;;;;;;;;;;;;;;6297984;28;19919;-75
2024/02/22 20:33:23;;;;;;;;;;;;;;;;;;6299815;28;19915;-75